createdAt,value
2017-08-25T00:02:27.141Z,19.40
2017-08-25T00:04:56.386Z,19.40
2017-08-25T00:07:25.628Z,19.40
2017-08-25T00:09:54.880Z,19.50
2017-08-25T00:12:24.128Z,19.50
2017-08-25T00:14:53.384Z,19.50
2017-08-25T00:17:22.628Z,19.50
2017-08-25T00:19:51.893Z,19.30
2017-08-25T00:22:21.140Z,19.30
2017-08-25T00:24:50.389Z,19.30
2017-08-25T00:27:19.641Z,19.40
2017-08-25T00:29:48.883Z,19.30
2017-08-25T00:32:18.131Z,19.30
2017-08-25T00:34:47.390Z,19.30
2017-08-25T00:37:16.635Z,19.30
2017-08-25T00:39:45.891Z,19.30
2017-08-25T00:42:15.132Z,19.30
2017-08-25T00:44:44.393Z,19.30
2017-08-25T00:47:13.636Z,19.30
2017-08-25T00:49:42.909Z,19.30
2017-08-25T00:52:12.156Z,19.30
2017-08-25T00:54:41.412Z,19.30
2017-08-25T00:57:10.661Z,19.30
2017-08-25T00:59:39.916Z,19.40
2017-08-25T01:02:09.169Z,19.30
2017-08-25T01:04:38.428Z,19.30
2017-08-25T01:07:07.684Z,19.30
2017-08-25T01:09:36.932Z,19.20
2017-08-25T01:12:06.189Z,19.10
2017-08-25T01:14:35.436Z,19.10
2017-08-25T01:17:04.684Z,19.20
2017-08-25T01:19:33.936Z,19.30
2017-08-25T01:22:03.189Z,19.30
2017-08-25T01:24:32.447Z,19.30
2017-08-25T01:27:01.697Z,19.30
2017-08-25T01:29:30.944Z,19.30
2017-08-25T01:32:00.197Z,19.30
2017-08-25T01:34:29.452Z,19.30
2017-08-25T01:36:58.710Z,19.40
2017-08-25T01:39:27.949Z,19.30
2017-08-25T01:41:57.200Z,19.30
2017-08-25T01:44:26.460Z,19.40
2017-08-25T01:46:55.717Z,19.40
2017-08-25T01:49:24.961Z,19.30
2017-08-25T01:51:54.209Z,19.30
2017-08-25T01:54:23.457Z,19.30
2017-08-25T01:56:52.721Z,19.30
2017-08-25T01:59:22.012Z,19.30
2017-08-25T02:01:51.261Z,19.30
2017-08-25T02:04:20.508Z,19.30
2017-08-25T02:06:49.760Z,19.40
2017-08-25T02:09:19.013Z,19.50
2017-08-25T02:11:48.257Z,19.50
2017-08-25T02:14:17.508Z,19.40
2017-08-25T02:16:46.757Z,19.40
2017-08-25T02:19:16.014Z,19.40
2017-08-25T02:21:50.748Z,19.50
2017-08-25T02:24:19.996Z,19.50
2017-08-25T02:26:49.248Z,19.50
2017-08-25T02:29:18.507Z,19.50
2017-08-25T02:31:47.747Z,19.50
2017-08-25T02:34:16.998Z,19.50
2017-08-25T02:36:46.246Z,19.40
2017-08-25T02:39:15.504Z,19.50
2017-08-25T02:41:44.756Z,19.50
2017-08-25T02:44:14.013Z,19.50
2017-08-25T02:46:43.265Z,19.50
2017-08-25T02:49:12.526Z,19.50
2017-08-25T02:51:41.780Z,19.50
2017-08-25T02:54:11.040Z,19.40
2017-08-25T02:56:40.293Z,19.50
2017-08-25T02:59:09.544Z,19.50
2017-08-25T03:01:38.842Z,19.50
2017-08-25T03:04:08.104Z,19.50
2017-08-25T03:06:37.361Z,19.60
2017-08-25T03:09:06.627Z,19.50
2017-08-25T03:11:35.903Z,19.50
2017-08-25T03:14:05.929Z,19.30
2017-08-25T03:16:35.180Z,19.20
2017-08-25T03:19:04.524Z,19.30
2017-08-25T03:21:33.778Z,19.30
2017-08-25T03:24:03.068Z,19.40
2017-08-25T03:26:32.319Z,19.30
2017-08-25T03:29:01.576Z,19.40
2017-08-25T03:31:30.850Z,19.40
2017-08-25T03:34:00.092Z,19.40
2017-08-25T03:36:29.359Z,19.40
2017-08-25T03:38:58.620Z,19.40
2017-08-25T03:41:27.873Z,19.40
2017-08-25T03:43:57.134Z,19.40
2017-08-25T03:46:26.432Z,19.50
2017-08-25T03:48:55.660Z,19.50
2017-08-25T03:51:24.920Z,19.50
2017-08-25T03:53:58.011Z,19.50
2017-08-25T03:56:27.261Z,19.50
2017-08-25T03:58:56.517Z,19.50
2017-08-25T04:01:25.781Z,19.50
2017-08-25T04:03:55.034Z,19.40
2017-08-25T04:06:24.284Z,19.40
2017-08-25T04:08:53.550Z,19.40
2017-08-25T04:11:22.797Z,19.40
2017-08-25T04:13:52.047Z,19.40
2017-08-25T04:16:21.304Z,19.40
2017-08-25T04:18:50.650Z,19.40
2017-08-25T04:21:19.895Z,19.40
2017-08-25T04:23:49.152Z,19.30
2017-08-25T04:26:18.673Z,19.30
2017-08-25T04:28:47.925Z,19.30
2017-08-25T04:31:17.176Z,19.30
2017-08-25T04:33:46.438Z,19.30
2017-08-25T04:36:15.700Z,19.30
2017-08-25T04:38:44.949Z,19.30
2017-08-25T04:41:17.748Z,19.30
2017-08-25T04:43:46.997Z,19.30
2017-08-25T04:46:16.252Z,19.30
2017-08-25T04:48:45.501Z,19.30
2017-08-25T04:51:14.744Z,19.30
2017-08-25T04:53:44.015Z,19.30
2017-08-25T04:56:13.262Z,19.20
2017-08-25T04:58:42.512Z,19.30
2017-08-25T05:01:11.764Z,19.30
2017-08-25T05:03:41.020Z,19.20
2017-08-25T05:06:10.265Z,19.20
2017-08-25T05:08:39.517Z,19.30
2017-08-25T05:11:08.773Z,19.20
2017-08-25T05:13:38.023Z,19.30
2017-08-25T05:16:07.271Z,19.30
2017-08-25T05:18:36.528Z,19.30
2017-08-25T05:21:05.792Z,19.50
2017-08-25T05:23:35.043Z,19.50
2017-08-25T05:26:04.293Z,19.50
2017-08-25T05:28:33.553Z,19.60
2017-08-25T05:31:02.812Z,19.60
2017-08-25T05:33:32.065Z,19.70
2017-08-25T05:36:01.334Z,19.80
2017-08-25T05:38:30.585Z,20.00
2017-08-25T05:40:59.831Z,20.20
2017-08-25T05:43:29.096Z,20.40
2017-08-25T05:45:58.345Z,20.70
2017-08-25T05:48:27.604Z,21.00
2017-08-25T05:50:56.863Z,21.30
2017-08-25T05:53:26.121Z,21.60
2017-08-25T05:55:55.384Z,21.90
2017-08-25T05:58:24.640Z,22.10
2017-08-25T06:00:53.900Z,22.30
2017-08-25T06:03:23.149Z,22.40
2017-08-25T06:05:52.393Z,22.70
2017-08-25T06:08:21.648Z,22.90
2017-08-25T06:10:50.918Z,23.00
2017-08-25T06:13:20.164Z,23.20
2017-08-25T06:15:49.416Z,23.30
2017-08-25T06:18:18.676Z,23.40
2017-08-25T06:20:47.922Z,23.50
2017-08-25T06:23:17.176Z,23.50
2017-08-25T06:25:48.376Z,23.60
2017-08-25T06:28:17.608Z,23.80
2017-08-25T06:30:46.862Z,23.90
2017-08-25T06:33:16.112Z,23.90
2017-08-25T06:35:45.367Z,23.90
2017-08-25T06:38:14.614Z,24.00
2017-08-25T06:40:43.861Z,24.10
2017-08-25T06:43:13.224Z,24.20
2017-08-25T06:45:42.483Z,24.20
2017-08-25T06:48:11.724Z,24.20
2017-08-25T06:50:40.982Z,24.20
2017-08-25T06:53:10.224Z,24.20
2017-08-25T06:55:39.477Z,24.10
2017-08-25T06:58:08.734Z,24.10
2017-08-25T07:00:37.980Z,24.10
2017-08-25T07:03:07.229Z,24.00
2017-08-25T07:05:36.492Z,23.90
2017-08-25T07:08:05.741Z,23.90
2017-08-25T07:10:35.003Z,24.00
2017-08-25T07:13:04.249Z,24.10
2017-08-25T07:15:33.522Z,24.20
2017-08-25T07:18:02.835Z,24.20
2017-08-25T07:20:32.080Z,24.10
2017-08-25T07:23:01.329Z,24.10
2017-08-25T07:25:30.584Z,24.00
2017-08-25T07:27:59.847Z,23.90
2017-08-25T07:30:29.103Z,23.90
2017-08-25T07:32:58.352Z,23.90
2017-08-25T07:35:27.600Z,23.80
2017-08-25T07:37:56.877Z,23.80
2017-08-25T07:40:26.121Z,23.80
2017-08-25T07:42:55.364Z,23.90
2017-08-25T07:45:24.628Z,23.90
2017-08-25T07:47:53.902Z,23.90
2017-08-25T07:50:23.185Z,23.90
2017-08-25T07:52:53.162Z,23.90
2017-08-25T07:55:22.384Z,24.00
2017-08-25T07:57:51.643Z,24.00
2017-08-25T08:00:20.893Z,24.00
2017-08-25T08:02:50.153Z,24.00
2017-08-25T08:05:19.415Z,24.00
2017-08-25T08:07:48.672Z,24.10
2017-08-25T08:10:17.929Z,24.10
2017-08-25T08:12:47.178Z,24.20
2017-08-25T08:15:16.460Z,24.20
2017-08-25T08:17:45.752Z,24.30
2017-08-25T08:20:14.996Z,24.30
2017-08-25T08:22:44.259Z,24.40
2017-08-25T08:25:13.529Z,24.40
2017-08-25T08:27:42.883Z,24.50
2017-08-25T08:30:12.141Z,24.60
2017-08-25T08:32:41.388Z,24.60
2017-08-25T08:35:10.661Z,24.70
2017-08-25T08:37:39.908Z,24.70
2017-08-25T08:40:09.204Z,24.80
2017-08-25T08:42:38.455Z,24.90
2017-08-25T08:45:07.716Z,24.90
2017-08-25T08:47:36.985Z,25.00
2017-08-25T08:50:06.281Z,25.10
2017-08-25T08:52:35.517Z,25.10
2017-08-25T08:55:04.795Z,25.20
2017-08-25T08:57:34.043Z,25.20
2017-08-25T09:00:03.318Z,25.20
2017-08-25T09:02:34.157Z,25.30
2017-08-25T09:05:03.545Z,25.40
2017-08-25T09:07:32.788Z,25.40
2017-08-25T09:10:02.045Z,25.50
2017-08-25T09:12:31.297Z,25.60
2017-08-25T09:15:00.554Z,25.60
2017-08-25T09:17:29.808Z,25.70
2017-08-25T09:19:59.091Z,25.70
2017-08-25T09:22:29.164Z,25.80
2017-08-25T09:24:58.440Z,25.80
2017-08-25T09:27:27.730Z,25.80
2017-08-25T09:29:57.759Z,26.00
2017-08-25T09:32:27.032Z,26.00
2017-08-25T09:34:56.296Z,26.10
2017-08-25T09:37:25.560Z,26.10
2017-08-25T09:39:55.704Z,26.10
2017-08-25T09:42:25.761Z,26.20
2017-08-25T09:44:55.049Z,26.30
2017-08-25T09:47:24.300Z,26.40
2017-08-25T09:49:53.560Z,26.50
2017-08-25T09:52:22.875Z,26.50
2017-08-25T09:54:52.152Z,26.60
2017-08-25T09:57:21.416Z,26.70
2017-08-25T09:59:50.675Z,26.70
2017-08-25T10:02:19.988Z,26.80
2017-08-25T10:04:49.244Z,26.80
2017-08-25T10:07:18.513Z,26.80
2017-08-25T10:09:48.800Z,26.80
2017-08-25T10:12:18.098Z,27.00
2017-08-25T10:14:47.352Z,27.00
2017-08-25T10:17:16.611Z,27.10
2017-08-25T10:19:45.889Z,27.20
2017-08-25T10:22:15.160Z,27.20
2017-08-25T10:24:44.414Z,27.30
2017-08-25T10:27:14.452Z,27.50
2017-08-25T10:29:43.720Z,27.50
2017-08-25T10:32:12.981Z,27.60
2017-08-25T10:35:00.006Z,27.70
2017-08-25T10:37:47.032Z,27.80
2017-08-25T10:40:34.008Z,27.80
2017-08-25T10:43:20.915Z,27.80
2017-08-25T10:45:50.181Z,27.80
2017-08-25T10:48:19.453Z,27.90
2017-08-25T10:50:48.711Z,27.90
2017-08-25T10:53:17.949Z,28.10
2017-08-25T10:55:47.203Z,28.20
2017-08-25T10:58:16.452Z,28.30
2017-08-25T11:00:45.708Z,28.40
2017-08-25T11:03:14.977Z,28.40
2017-08-25T11:05:44.250Z,28.50
2017-08-25T11:08:13.493Z,28.60
2017-08-25T11:10:42.748Z,28.80
2017-08-25T11:13:12.032Z,28.90
2017-08-25T11:15:41.302Z,29.00
2017-08-25T11:18:10.561Z,29.00
2017-08-25T11:20:39.848Z,29.10
2017-08-25T11:23:09.085Z,29.00
2017-08-25T11:25:38.332Z,29.10
2017-08-25T11:28:07.584Z,29.10
2017-08-25T11:30:36.841Z,29.20
2017-08-25T11:33:06.088Z,29.20
2017-08-25T11:35:35.356Z,29.40
2017-08-25T11:38:04.600Z,29.40
2017-08-25T11:40:33.874Z,29.40
2017-08-25T11:43:03.123Z,29.40
2017-08-25T11:45:32.373Z,29.30
2017-08-25T11:48:01.640Z,29.40
2017-08-25T11:50:30.867Z,29.40
2017-08-25T11:53:00.124Z,29.50
2017-08-25T11:55:29.372Z,29.50
2017-08-25T11:57:58.633Z,29.60
2017-08-25T12:00:27.875Z,29.50
2017-08-25T12:02:57.155Z,29.50
2017-08-25T12:05:26.396Z,29.40
2017-08-25T12:07:55.641Z,29.30
2017-08-25T12:10:24.917Z,29.30
2017-08-25T12:12:54.160Z,29.40
2017-08-25T12:15:23.404Z,29.50
2017-08-25T12:17:52.656Z,29.50
2017-08-25T12:20:21.900Z,29.50
2017-08-25T12:22:51.153Z,29.50
2017-08-25T12:25:20.408Z,29.50
2017-08-25T12:27:49.657Z,29.60
2017-08-25T12:30:18.932Z,29.60
2017-08-25T12:32:48.163Z,29.70
2017-08-25T12:35:17.416Z,29.70
2017-08-25T12:37:46.675Z,29.70
2017-08-25T12:40:15.928Z,29.70
2017-08-25T12:42:45.184Z,29.60
2017-08-25T12:45:14.428Z,29.60
2017-08-25T12:47:43.721Z,29.60
2017-08-25T12:50:12.974Z,29.60
2017-08-25T12:52:42.233Z,29.60
2017-08-25T12:55:11.476Z,29.60
2017-08-25T12:57:40.735Z,29.60
2017-08-25T13:00:09.984Z,29.60
2017-08-25T13:02:39.274Z,29.70
2017-08-25T13:05:08.528Z,29.80
2017-08-25T13:07:37.780Z,29.80
2017-08-25T13:10:07.029Z,29.80
2017-08-25T13:12:36.276Z,29.80
2017-08-25T13:15:05.524Z,29.90
2017-08-25T13:17:34.775Z,29.80
2017-08-25T13:20:04.808Z,29.80
2017-08-25T13:22:34.060Z,29.80
2017-08-25T13:25:03.324Z,29.90
2017-08-25T13:27:32.559Z,29.80
2017-08-25T13:30:01.827Z,29.80
2017-08-25T13:32:31.080Z,30.00
2017-08-25T13:35:00.332Z,30.00
2017-08-25T13:37:29.584Z,30.00
2017-08-25T13:39:58.833Z,30.00
2017-08-25T13:42:28.084Z,30.00
2017-08-25T13:44:57.336Z,29.90
2017-08-25T13:47:26.581Z,29.90
2017-08-25T13:49:55.832Z,30.00
2017-08-25T13:52:25.085Z,30.00
2017-08-25T13:54:54.332Z,30.10
2017-08-25T13:57:23.604Z,30.10
2017-08-25T13:59:52.876Z,30.20
2017-08-25T14:02:22.125Z,30.20
2017-08-25T14:04:51.392Z,30.20
2017-08-25T14:07:20.636Z,30.40
2017-08-25T14:09:49.896Z,30.40
2017-08-25T14:12:19.143Z,30.40
2017-08-25T14:14:48.392Z,30.40
2017-08-25T14:17:17.656Z,30.40
2017-08-25T14:19:46.901Z,30.40
2017-08-25T14:22:16.936Z,30.40
2017-08-25T14:24:46.180Z,30.40
2017-08-25T14:27:31.654Z,30.40
2017-08-25T14:30:12.214Z,30.50
2017-08-25T14:32:51.925Z,30.50
2017-08-25T14:35:23.685Z,30.50
2017-08-25T14:37:52.937Z,30.50
2017-08-25T14:40:22.193Z,30.50
2017-08-25T14:42:51.665Z,30.50
2017-08-25T14:45:20.912Z,30.50
2017-08-25T14:47:50.168Z,30.30
2017-08-25T14:50:19.444Z,30.30
2017-08-25T14:52:48.704Z,30.30
2017-08-25T14:55:18.173Z,30.20
2017-08-25T14:57:47.432Z,30.20
2017-08-25T15:00:16.704Z,30.10
2017-08-25T15:02:46.824Z,30.10
2017-08-25T15:05:16.162Z,30.00
2017-08-25T15:07:45.485Z,29.80
2017-08-25T15:10:14.745Z,29.80
2017-08-25T15:12:44.000Z,29.80
2017-08-25T15:15:13.259Z,29.90
2017-08-25T15:17:42.512Z,29.90
2017-08-25T15:20:11.766Z,29.90
2017-08-25T15:22:41.030Z,30.00
2017-08-25T15:25:10.277Z,30.00
2017-08-25T15:27:40.114Z,29.90
2017-08-25T15:30:11.157Z,29.90
2017-08-25T15:32:41.196Z,29.80
2017-08-25T15:35:10.432Z,29.70
2017-08-25T15:37:39.692Z,29.80
2017-08-25T15:40:08.965Z,29.90
2017-08-25T15:42:38.224Z,30.00
2017-08-25T15:45:07.480Z,29.90
2017-08-25T15:47:36.763Z,29.80
2017-08-25T15:50:06.060Z,29.80
2017-08-25T15:52:35.279Z,29.80
2017-08-25T15:55:04.565Z,29.80
2017-08-25T15:57:33.823Z,29.80
2017-08-25T16:00:03.081Z,29.70
2017-08-25T16:02:32.328Z,29.80
2017-08-25T16:05:02.396Z,29.80
2017-08-25T16:07:31.643Z,29.70
2017-08-25T16:10:01.026Z,29.70
2017-08-25T16:12:30.287Z,29.70
2017-08-25T16:14:59.540Z,29.60
2017-08-25T16:17:28.795Z,29.50
2017-08-25T16:19:58.154Z,29.30
2017-08-25T16:22:27.428Z,29.30
2017-08-25T16:24:56.712Z,29.30
2017-08-25T16:27:25.973Z,29.30
2017-08-25T16:29:55.249Z,29.20
2017-08-25T16:32:24.629Z,29.30
2017-08-25T16:34:53.889Z,29.30
2017-08-25T16:37:23.149Z,29.30
2017-08-25T16:39:52.420Z,29.30
2017-08-25T16:42:21.673Z,29.50
2017-08-25T16:44:50.933Z,29.50
2017-08-25T16:47:20.191Z,29.50
2017-08-25T16:49:49.480Z,29.40
2017-08-25T16:52:18.733Z,29.40
2017-08-25T16:54:48.139Z,29.30
2017-08-25T16:57:17.396Z,29.30
2017-08-25T16:59:46.661Z,29.30
2017-08-25T17:02:16.093Z,29.20
2017-08-25T17:04:45.344Z,29.20
2017-08-25T17:07:14.697Z,29.20
2017-08-25T17:09:43.954Z,29.10
2017-08-25T17:12:13.212Z,29.10
2017-08-25T17:14:42.466Z,29.10
2017-08-25T17:17:11.743Z,29.10
2017-08-25T17:19:41.005Z,29.10
2017-08-25T17:22:10.261Z,29.10
2017-08-25T17:24:39.512Z,29.10
2017-08-25T17:27:09.668Z,29.00
2017-08-25T17:29:38.924Z,29.00
2017-08-25T17:32:08.218Z,29.00
2017-08-25T17:34:37.486Z,29.00
2017-08-25T17:37:06.846Z,28.90
2017-08-25T17:39:36.071Z,29.00
2017-08-25T17:42:06.125Z,28.90
2017-08-25T17:44:35.928Z,28.90
2017-08-25T17:47:06.020Z,28.90
2017-08-25T17:49:35.893Z,28.80
2017-08-25T17:52:05.241Z,28.80
2017-08-25T17:54:34.489Z,28.70
2017-08-25T17:57:04.200Z,28.60
2017-08-25T17:59:33.460Z,28.60
2017-08-25T18:02:02.773Z,28.50
2017-08-25T18:04:32.064Z,28.50
2017-08-25T18:07:01.336Z,28.50
2017-08-25T18:09:30.588Z,28.40
2017-08-25T18:12:00.768Z,28.40
2017-08-25T18:14:30.033Z,28.40
2017-08-25T18:16:59.887Z,28.30
2017-08-25T18:19:29.158Z,28.30
2017-08-25T18:21:58.412Z,28.30
2017-08-25T18:24:27.672Z,28.20
2017-08-25T18:26:57.036Z,28.20
2017-08-25T18:29:26.296Z,28.20
2017-08-25T18:31:55.553Z,28.20
2017-08-25T18:34:24.818Z,28.10
2017-08-25T18:36:54.073Z,28.10
2017-08-25T18:39:23.325Z,28.00
2017-08-25T18:41:52.593Z,28.00
2017-08-25T18:44:21.878Z,28.00
2017-08-25T18:46:51.136Z,27.90
2017-08-25T18:49:20.416Z,27.80
2017-08-25T18:51:49.697Z,27.80
2017-08-25T18:54:18.990Z,27.70
2017-08-25T18:56:48.259Z,27.70
2017-08-25T18:59:17.529Z,27.60
2017-08-25T19:01:46.792Z,27.60
2017-08-25T19:04:16.064Z,27.50
2017-08-25T19:06:45.337Z,27.50
2017-08-25T19:09:14.612Z,27.50
2017-08-25T19:11:43.878Z,27.40
2017-08-25T19:14:13.152Z,27.30
2017-08-25T19:16:42.416Z,27.30
2017-08-25T19:19:11.709Z,27.20
2017-08-25T19:21:40.971Z,27.20
2017-08-25T19:24:10.241Z,27.10
2017-08-25T19:26:41.023Z,27.00
2017-08-25T19:29:10.284Z,27.00
2017-08-25T19:31:39.556Z,26.90
2017-08-25T19:34:08.826Z,26.80
2017-08-25T19:36:38.088Z,26.70
2017-08-25T19:39:07.355Z,26.60
2017-08-25T19:41:36.626Z,26.50
2017-08-25T19:44:05.888Z,26.40
2017-08-25T19:46:35.158Z,26.50
2017-08-25T19:49:04.424Z,26.40
2017-08-25T19:51:33.696Z,26.40
2017-08-25T19:54:02.955Z,26.40
2017-08-25T19:56:32.268Z,26.40
2017-08-25T19:59:01.529Z,26.30
2017-08-25T20:01:30.801Z,26.20
2017-08-25T20:04:00.060Z,26.20
2017-08-25T20:06:29.330Z,26.20
2017-08-25T20:08:58.593Z,26.10
2017-08-25T20:11:27.866Z,26.00
2017-08-25T20:13:57.216Z,26.00
2017-08-25T20:16:26.500Z,25.90
2017-08-25T20:18:55.760Z,25.90
2017-08-25T20:21:25.028Z,25.80
2017-08-25T20:23:54.289Z,25.80
2017-08-25T20:26:23.552Z,25.70
2017-08-25T20:28:53.032Z,25.70
2017-08-25T20:31:22.315Z,25.60
2017-08-25T20:33:51.573Z,25.60
2017-08-25T20:36:20.837Z,25.60
2017-08-25T20:38:50.128Z,25.60
2017-08-25T20:41:20.164Z,25.40
2017-08-25T20:43:49.433Z,25.40
2017-08-25T20:46:19.461Z,25.30
2017-08-25T20:48:48.732Z,25.30
2017-08-25T20:51:17.998Z,25.30
2017-08-25T20:53:47.260Z,25.20
2017-08-25T20:56:16.524Z,25.10
2017-08-25T20:58:45.773Z,25.20
2017-08-25T21:01:15.032Z,25.10
2017-08-25T21:03:44.292Z,25.10
2017-08-25T21:06:13.548Z,25.00
2017-08-25T21:08:42.846Z,25.00
2017-08-25T21:11:12.109Z,25.00
2017-08-25T21:13:41.381Z,25.00
2017-08-25T21:16:10.633Z,25.00
2017-08-25T21:18:39.910Z,24.90
2017-08-25T21:21:09.160Z,24.90
2017-08-25T21:23:39.197Z,24.90
2017-08-25T21:26:08.656Z,24.90
2017-08-25T21:28:37.915Z,24.90
2017-08-25T21:31:07.369Z,24.90
2017-08-25T21:33:36.643Z,24.90
2017-08-25T21:36:05.897Z,24.90
2017-08-25T21:38:35.181Z,24.80
2017-08-25T21:41:04.440Z,24.80
2017-08-25T21:43:33.712Z,24.80
2017-08-25T21:46:02.973Z,24.80
2017-08-25T21:48:32.224Z,24.80
2017-08-25T21:51:01.491Z,24.60
2017-08-25T21:53:30.748Z,24.60
2017-08-25T21:56:00.016Z,24.70
2017-08-25T21:58:29.280Z,24.60
2017-08-25T22:00:58.552Z,24.60
2017-08-25T22:03:27.804Z,24.60
2017-08-25T22:05:57.068Z,24.50
2017-08-25T22:08:26.338Z,24.50
2017-08-25T22:10:55.604Z,24.50
2017-08-25T22:13:24.854Z,24.50
2017-08-25T22:15:54.121Z,24.50
2017-08-25T22:18:23.381Z,24.40
2017-08-25T22:20:52.652Z,24.30
2017-08-25T22:23:21.918Z,24.30
2017-08-25T22:25:51.180Z,24.20
2017-08-25T22:28:20.448Z,24.20
2017-08-25T22:30:49.717Z,24.20
2017-08-25T22:33:18.973Z,24.10
2017-08-25T22:35:48.236Z,24.10
2017-08-25T22:38:17.492Z,24.00
2017-08-25T22:40:46.753Z,24.00
2017-08-25T22:43:16.009Z,24.00
2017-08-25T22:45:45.264Z,24.00
2017-08-25T22:48:14.525Z,23.90
2017-08-25T22:50:43.785Z,23.90
2017-08-25T22:53:13.054Z,23.90
2017-08-25T22:55:42.315Z,23.80
2017-08-25T22:58:11.584Z,23.80
2017-08-25T23:00:40.836Z,23.80
2017-08-25T23:03:10.106Z,23.80
2017-08-25T23:05:39.369Z,23.80
2017-08-25T23:08:08.620Z,23.70
2017-08-25T23:10:37.877Z,23.70
2017-08-25T23:13:07.169Z,23.60
2017-08-25T23:15:36.420Z,23.60
2017-08-25T23:18:05.681Z,23.50
2017-08-25T23:20:34.940Z,23.50
2017-08-25T23:23:04.201Z,23.40
2017-08-25T23:25:33.488Z,23.40
2017-08-25T23:28:02.745Z,23.40
2017-08-25T23:30:31.997Z,23.40
2017-08-25T23:33:01.264Z,23.40
2017-08-25T23:35:30.525Z,23.30
2017-08-25T23:37:59.784Z,23.20
2017-08-25T23:40:29.044Z,23.20
2017-08-25T23:42:58.301Z,23.10
2017-08-25T23:45:27.569Z,23.10
2017-08-25T23:47:56.831Z,23.10
2017-08-25T23:50:26.088Z,23.10
2017-08-25T23:52:55.345Z,22.90
2017-08-25T23:55:24.613Z,22.90
2017-08-25T23:57:53.864Z,22.80
